createdAt,value
2023-05-01T00:00:28.598Z,21.73
2023-05-01T00:02:55.808Z,21.03
2023-05-01T00:05:22.622Z,21.07
2023-05-01T00:07:49.697Z,23.70
2023-05-01T00:10:17.102Z,22.20
2023-05-01T00:12:43.910Z,23.10
2023-05-01T00:15:11.040Z,21.13
2023-05-01T00:17:37.843Z,20.90
2023-05-01T00:20:05.465Z,22.20
2023-05-01T00:22:32.386Z,23.83
2023-05-01T00:24:59.266Z,22.37
2023-05-01T00:27:26.245Z,22.63
2023-05-01T00:29:53.076Z,22.03
2023-05-01T00:32:19.914Z,21.90
2023-05-01T00:34:48.172Z,22.23
2023-05-01T00:37:15.396Z,21.87
2023-05-01T00:39:42.213Z,25.93
2023-05-01T00:42:09.101Z,23.60
2023-05-01T00:44:35.936Z,25.27
2023-05-01T00:47:04.414Z,24.10
2023-05-01T00:49:31.700Z,25.60
2023-05-01T00:51:58.810Z,23.20
2023-05-01T00:54:27.662Z,25.07
2023-05-01T00:56:54.806Z,22.80
2023-05-01T00:59:22.341Z,24.67
2023-05-01T01:01:50.440Z,24.30
2023-05-01T01:04:17.340Z,23.57
2023-05-01T01:07:21.523Z,25.07
2023-05-01T01:10:00.310Z,23.50
2023-05-01T01:12:47.573Z,24.73
2023-05-01T01:15:25.014Z,23.13
2023-05-01T01:18:06.892Z,22.67
2023-05-01T01:20:37.864Z,23.53
2023-05-01T01:23:32.733Z,22.57
2023-05-01T01:26:37.374Z,21.83
2023-05-01T01:29:23.270Z,24.43
2023-05-01T01:31:57.222Z,21.53
2023-05-01T01:34:44.519Z,23.57
2023-05-01T01:37:25.379Z,23.43
2023-05-01T01:40:02.625Z,23.47
2023-05-01T01:42:38.999Z,24.50
2023-05-01T01:45:11.944Z,24.23
2023-05-01T01:47:42.234Z,25.27
2023-05-01T01:50:12.723Z,23.53
2023-05-01T01:52:41.151Z,24.63
2023-05-01T01:55:11.727Z,23.23
2023-05-01T01:57:40.520Z,24.00
2023-05-01T02:00:11.072Z,23.73
2023-05-01T02:02:41.380Z,23.53
2023-05-01T02:05:11.469Z,24.93
2023-05-01T02:07:40.632Z,23.83
2023-05-01T02:10:09.559Z,22.90
2023-05-01T02:12:37.770Z,22.50
2023-05-01T02:15:07.976Z,23.47
2023-05-01T02:17:36.763Z,23.63
2023-05-01T02:20:05.540Z,26.20
2023-05-01T02:22:33.461Z,25.03
2023-05-01T02:25:01.877Z,24.20
2023-05-01T02:27:32.553Z,25.13
2023-05-01T02:29:59.481Z,25.30
2023-05-01T02:32:26.686Z,24.07
2023-05-01T02:34:53.998Z,26.47
2023-05-01T02:37:21.259Z,23.60
2023-05-01T02:39:48.754Z,24.20
2023-05-01T02:42:17.762Z,22.83
2023-05-01T02:45:07.753Z,23.37
2023-05-01T02:47:38.242Z,23.83
2023-05-01T02:50:06.959Z,23.53
2023-05-01T02:52:36.253Z,23.93
2023-05-01T02:55:29.838Z,22.40
2023-05-01T02:58:00.185Z,24.37
2023-05-01T03:00:28.006Z,22.60
2023-05-01T03:02:55.008Z,23.83
2023-05-01T03:05:22.749Z,23.17
2023-05-01T03:07:51.212Z,22.93
2023-05-01T03:10:18.274Z,23.43
2023-05-01T03:12:45.362Z,23.73
2023-05-01T03:15:13.042Z,25.00
2023-05-01T03:17:39.943Z,24.33
2023-05-01T03:20:09.460Z,24.67
2023-05-01T03:22:36.523Z,24.80
2023-05-01T03:25:04.357Z,24.30
2023-05-01T03:27:32.431Z,24.87
2023-05-01T03:29:59.220Z,24.47
2023-05-01T03:32:28.326Z,24.00
2023-05-01T03:34:56.327Z,24.67
2023-05-01T03:37:23.125Z,24.07
2023-05-01T03:39:50.039Z,26.30
2023-05-01T03:42:20.347Z,28.27
2023-05-01T03:44:47.870Z,27.60
2023-05-01T03:47:14.970Z,27.70
2023-05-01T03:49:43.651Z,27.57
2023-05-01T03:52:14.579Z,27.83
2023-05-01T03:54:42.893Z,25.80
2023-05-01T03:57:38.964Z,24.70
2023-05-01T04:00:07.426Z,25.30
2023-05-01T04:02:42.472Z,23.37
2023-05-01T04:05:13.285Z,25.10
2023-05-01T04:07:43.584Z,27.40
2023-05-01T04:10:10.743Z,25.37
2023-05-01T04:12:42.504Z,25.03
2023-05-01T04:15:09.939Z,25.80
2023-05-01T04:17:37.728Z,23.20
2023-05-01T04:20:08.402Z,24.80
2023-05-01T04:22:35.606Z,25.10
2023-05-01T04:25:02.544Z,25.93
2023-05-01T04:27:29.677Z,26.40
2023-05-01T04:29:57.228Z,25.50
2023-05-01T04:32:24.394Z,25.93
2023-05-01T04:34:51.279Z,25.57
2023-05-01T04:37:18.663Z,27.07
2023-05-01T04:39:45.745Z,30.70
2023-05-01T04:42:12.685Z,28.50
2023-05-01T04:44:40.282Z,26.50
2023-05-01T04:47:07.568Z,27.40
2023-05-01T04:49:35.954Z,26.07
2023-05-01T04:52:05.161Z,24.87
2023-05-01T04:54:44.569Z,25.47
2023-05-01T04:57:11.553Z,25.23
2023-05-01T04:59:39.688Z,26.93
2023-05-01T05:02:06.711Z,25.37
2023-05-01T05:04:33.662Z,24.87
2023-05-01T05:07:00.978Z,25.07
2023-05-01T05:09:42.264Z,25.37
2023-05-01T05:12:09.161Z,26.07
2023-05-01T05:14:36.603Z,25.13
2023-05-01T05:17:03.491Z,23.97
2023-05-01T05:19:30.581Z,24.47
2023-05-01T05:21:57.351Z,25.93
2023-05-01T05:24:24.255Z,25.63
2023-05-01T05:26:51.273Z,27.43
2023-05-01T05:29:18.279Z,27.67
2023-05-01T05:31:45.496Z,26.20
2023-05-01T05:34:12.477Z,25.40
2023-05-01T05:36:39.485Z,25.83
2023-05-01T05:39:06.504Z,27.30
2023-05-01T05:41:34.002Z,27.30
2023-05-01T05:44:02.975Z,25.33
2023-05-01T05:46:29.815Z,27.23
2023-05-01T05:48:56.738Z,26.27
2023-05-01T05:51:25.328Z,25.63
2023-05-01T05:53:53.174Z,26.00
2023-05-01T05:56:20.231Z,25.80
2023-05-01T05:58:47.399Z,24.93
2023-05-01T06:01:15.063Z,25.13
2023-05-01T06:03:42.200Z,26.63
2023-05-01T06:06:09.483Z,25.87
2023-05-01T06:08:37.690Z,28.20
2023-05-01T06:11:09.086Z,27.77
2023-05-01T06:13:38.731Z,26.40
2023-05-01T06:16:07.538Z,26.73
2023-05-01T06:18:34.641Z,26.40
2023-05-01T06:21:01.524Z,26.43
2023-05-01T06:23:28.366Z,22.97
2023-05-01T06:26:15.100Z,25.73
2023-05-01T06:28:41.995Z,26.27
2023-05-01T06:31:08.969Z,23.80
2023-05-01T06:33:40.699Z,21.63
2023-05-01T06:36:19.020Z,26.17
2023-05-01T06:38:48.824Z,25.03
2023-05-01T06:41:17.082Z,27.23
2023-05-01T06:43:45.222Z,25.37
2023-05-01T06:46:12.568Z,25.13
2023-05-01T06:48:39.471Z,26.57
2023-05-01T06:51:06.374Z,27.57
2023-05-01T06:53:33.568Z,28.80
2023-05-01T06:56:00.505Z,29.43
2023-05-01T06:58:27.344Z,25.57
2023-05-01T07:00:54.461Z,24.83
2023-05-01T07:03:21.747Z,26.73
2023-05-01T07:05:48.618Z,28.17
2023-05-01T07:08:15.405Z,24.20
2023-05-01T07:10:42.636Z,23.07
2023-05-01T07:13:09.786Z,24.87
2023-05-01T07:15:37.194Z,23.83
2023-05-01T07:18:06.213Z,27.60
2023-05-01T07:20:34.521Z,27.47
2023-05-01T07:23:01.415Z,27.03
2023-05-01T07:25:28.226Z,25.47
2023-05-01T07:27:55.055Z,26.23
2023-05-01T07:30:21.922Z,27.80
2023-05-01T07:32:48.978Z,30.63
2023-05-01T07:35:15.890Z,28.13
2023-05-01T07:37:42.750Z,27.23
2023-05-01T07:40:10.004Z,26.50
2023-05-01T07:42:36.884Z,24.40
2023-05-01T07:45:04.199Z,23.07
2023-05-01T07:47:30.996Z,23.23
2023-05-01T07:49:58.233Z,23.60
2023-05-01T07:52:25.157Z,26.00
2023-05-01T07:54:52.253Z,23.47
2023-05-01T07:57:19.098Z,26.57
2023-05-01T07:59:46.008Z,24.93
2023-05-01T08:02:13.873Z,23.47
2023-05-01T08:04:41.712Z,25.33
2023-05-01T08:07:08.801Z,23.93
2023-05-01T08:09:35.758Z,25.30
2023-05-01T08:12:04.000Z,25.63
2023-05-01T08:14:31.190Z,31.40
2023-05-01T08:16:58.447Z,29.90
2023-05-01T08:19:26.997Z,25.13
2023-05-01T08:21:54.157Z,25.70
2023-05-01T08:24:20.986Z,24.63
2023-05-01T08:26:48.789Z,24.37
2023-05-01T08:29:15.970Z,27.03
2023-05-01T08:31:43.744Z,30.80
2023-05-01T08:34:10.829Z,26.50
2023-05-01T08:36:38.236Z,26.57
2023-05-01T08:39:05.546Z,25.80
2023-05-01T08:41:33.054Z,28.77
2023-05-01T08:44:04.295Z,27.80
2023-05-01T08:47:01.861Z,23.43
2023-05-01T08:49:32.700Z,24.43
2023-05-01T08:52:02.413Z,23.13
2023-05-01T08:54:31.599Z,25.83
2023-05-01T08:57:05.931Z,27.20
2023-05-01T08:59:35.618Z,32.47
2023-05-01T09:02:04.471Z,31.37
2023-05-01T09:04:41.526Z,29.60
2023-05-01T09:07:10.133Z,28.73
2023-05-01T09:09:37.133Z,28.07
2023-05-01T09:12:23.581Z,22.90
2023-05-01T09:14:52.808Z,24.03
2023-05-01T09:17:21.036Z,24.50
2023-05-01T09:19:51.656Z,25.10
2023-05-01T09:22:19.747Z,29.77
2023-05-01T09:24:46.989Z,30.07
2023-05-01T09:27:14.604Z,30.13
2023-05-01T09:29:46.654Z,24.70
2023-05-01T09:32:20.832Z,23.57
2023-05-01T09:34:49.427Z,24.80
2023-05-01T09:37:34.030Z,29.20
2023-05-01T09:40:11.053Z,31.20
2023-05-01T09:42:39.746Z,30.50
2023-05-01T09:45:14.277Z,26.23
2023-05-01T09:47:42.624Z,24.10
2023-05-01T09:50:10.224Z,25.27
2023-05-01T09:52:37.231Z,26.60
2023-05-01T09:55:15.682Z,23.50
2023-05-01T09:57:43.825Z,21.47
2023-05-01T10:00:12.338Z,23.13
2023-05-01T10:02:40.722Z,22.87
2023-05-01T10:05:11.322Z,26.40
2023-05-01T10:07:39.290Z,20.60
2023-05-01T10:10:19.134Z,22.93
2023-05-01T10:12:46.636Z,24.00
2023-05-01T10:15:24.703Z,22.90
2023-05-01T10:17:53.646Z,21.23
2023-05-01T10:20:20.877Z,20.03
2023-05-01T10:22:49.033Z,19.00
2023-05-01T10:25:18.113Z,21.20
2023-05-01T10:27:45.521Z,18.67
2023-05-01T10:30:12.826Z,18.37
2023-05-01T10:32:41.791Z,17.80
2023-05-01T10:35:21.588Z,19.37
2023-05-01T10:37:54.322Z,17.80
2023-05-01T10:40:39.334Z,17.47
2023-05-01T10:43:26.178Z,17.70
2023-05-01T10:45:54.625Z,18.00
2023-05-01T10:48:39.800Z,17.93
2023-05-01T10:51:28.131Z,18.47
2023-05-01T10:54:13.917Z,16.70
2023-05-01T10:56:44.167Z,18.40
2023-05-01T10:59:12.870Z,20.47
2023-05-01T11:01:42.150Z,17.97
2023-05-01T11:04:24.570Z,18.40
2023-05-01T11:07:10.941Z,17.30
2023-05-01T11:09:45.083Z,17.40
2023-05-01T11:12:13.558Z,17.03
2023-05-01T11:14:57.461Z,18.60
2023-05-01T11:17:39.864Z,17.10
2023-05-01T11:20:07.718Z,17.63
2023-05-01T11:22:36.063Z,17.27
2023-05-01T11:25:04.567Z,17.67
2023-05-01T11:27:32.010Z,17.40
2023-05-01T11:29:59.566Z,17.07
2023-05-01T11:32:30.197Z,17.00
2023-05-01T11:34:57.800Z,16.83
2023-05-01T11:37:44.580Z,16.60
2023-05-01T11:40:31.967Z,17.83
2023-05-01T11:43:06.868Z,17.10
2023-05-01T11:45:35.532Z,16.80
2023-05-01T11:48:04.606Z,16.50
2023-05-01T11:50:33.741Z,17.10
2023-05-01T11:53:00.822Z,16.77
2023-05-01T11:55:35.143Z,16.53
2023-05-01T11:58:02.708Z,15.87
2023-05-01T12:00:31.683Z,16.37
2023-05-01T12:03:03.832Z,15.33
2023-05-01T12:05:34.444Z,16.10
2023-05-01T12:08:19.101Z,15.00
2023-05-01T12:10:55.988Z,15.57
2023-05-01T12:13:23.820Z,16.07
2023-05-01T12:15:55.126Z,16.17
2023-05-01T12:18:22.561Z,17.80
2023-05-01T12:20:52.136Z,17.40
2023-05-01T12:23:30.434Z,17.53
2023-05-01T12:25:57.413Z,18.30
2023-05-01T12:28:24.787Z,20.10
2023-05-01T12:30:51.717Z,19.33
2023-05-01T12:33:23.055Z,19.10
2023-05-01T12:35:50.766Z,18.57
2023-05-01T12:38:20.031Z,19.43
2023-05-01T12:40:54.086Z,19.63
2023-05-01T12:43:22.665Z,18.30
2023-05-01T12:45:52.915Z,19.03
2023-05-01T12:48:20.205Z,19.20
2023-05-01T12:50:54.376Z,18.50
2023-05-01T12:53:25.920Z,18.13
2023-05-01T12:55:57.649Z,19.20
2023-05-01T12:58:35.071Z,17.63
2023-05-01T13:01:02.131Z,18.57
2023-05-01T13:03:30.683Z,18.20
2023-05-01T13:06:00.638Z,18.97
2023-05-01T13:08:32.608Z,19.13
2023-05-01T13:11:01.791Z,20.30
2023-05-01T13:13:34.251Z,21.30
2023-05-01T13:16:06.323Z,21.70
2023-05-01T13:18:34.675Z,21.07
2023-05-01T13:21:09.700Z,20.13
2023-05-01T13:23:39.886Z,22.13
2023-05-01T13:26:08.109Z,21.83
2023-05-01T13:28:36.675Z,22.50
2023-05-01T13:31:11.777Z,22.00
2023-05-01T13:33:41.323Z,23.60
2023-05-01T13:36:22.162Z,23.97
2023-05-01T13:38:55.731Z,23.20
2023-05-01T13:41:25.577Z,21.90
2023-05-01T13:43:53.678Z,20.80
2023-05-01T13:46:22.736Z,20.87
2023-05-01T13:48:50.015Z,23.03
2023-05-01T13:51:25.243Z,21.87
2023-05-01T13:53:53.655Z,22.53
2023-05-01T13:56:21.985Z,23.10
2023-05-01T13:58:50.240Z,25.50
2023-05-01T14:01:20.561Z,25.77
2023-05-01T14:03:48.456Z,25.67
2023-05-01T14:06:17.153Z,26.50
2023-05-01T14:08:45.036Z,24.33
2023-05-01T14:11:13.031Z,23.27
2023-05-01T14:13:45.856Z,24.30
2023-05-01T14:16:27.444Z,22.30
2023-05-01T14:18:57.665Z,21.50
2023-05-01T14:21:27.849Z,21.87
2023-05-01T14:23:56.611Z,21.70
2023-05-01T14:26:24.546Z,21.57
2023-05-01T14:28:51.508Z,19.27
2023-05-01T14:31:27.472Z,19.80
2023-05-01T14:34:06.707Z,18.90
2023-05-01T14:36:33.894Z,18.33
2023-05-01T14:39:03.109Z,19.30
2023-05-01T14:41:30.323Z,17.77
2023-05-01T14:43:57.275Z,17.03
2023-05-01T14:46:28.661Z,18.17
2023-05-01T14:48:55.517Z,16.60
2023-05-01T14:51:22.551Z,17.47
2023-05-01T14:53:49.416Z,18.77
2023-05-01T14:56:16.217Z,16.70
2023-05-01T14:58:43.077Z,17.00
2023-05-01T15:01:09.904Z,16.80
2023-05-01T15:03:41.027Z,18.07
2023-05-01T15:06:08.924Z,18.30
2023-05-01T15:08:36.479Z,16.80
2023-05-01T15:11:03.468Z,17.10
2023-05-01T15:13:31.872Z,17.63
2023-05-01T15:15:59.034Z,17.50
2023-05-01T15:18:26.393Z,16.40
2023-05-01T15:20:53.470Z,17.00
2023-05-01T15:23:20.783Z,17.80
2023-05-01T15:25:50.449Z,17.37
2023-05-01T15:28:17.335Z,17.80
2023-05-01T15:30:46.266Z,16.63
2023-05-01T15:33:16.934Z,17.83
2023-05-01T15:35:46.387Z,18.27
2023-05-01T15:38:13.363Z,19.57
2023-05-01T15:40:42.729Z,19.83
2023-05-01T15:43:09.535Z,19.10
2023-05-01T15:45:42.875Z,18.33
2023-05-01T15:48:11.780Z,19.10
2023-05-01T15:50:38.696Z,20.03
2023-05-01T15:53:05.484Z,19.97
2023-05-01T15:55:32.455Z,18.70
2023-05-01T15:57:59.581Z,18.23
2023-05-01T16:00:26.441Z,18.00
2023-05-01T16:02:53.366Z,19.07
2023-05-01T16:05:24.685Z,18.40
2023-05-01T16:07:55.294Z,18.93
2023-05-01T16:10:22.794Z,19.57
2023-05-01T16:12:51.144Z,18.73
2023-05-01T16:15:18.765Z,19.53
2023-05-01T16:17:46.776Z,19.03
2023-05-01T16:20:14.851Z,19.47
2023-05-01T16:22:45.460Z,20.37
2023-05-01T16:25:12.898Z,19.77
2023-05-01T16:27:42.390Z,20.40
2023-05-01T16:30:10.419Z,20.63
2023-05-01T16:32:38.954Z,21.07
2023-05-01T16:35:05.932Z,19.73
2023-05-01T16:37:34.135Z,18.97
2023-05-01T16:40:01.893Z,19.73
2023-05-01T16:42:29.054Z,19.67
2023-05-01T16:44:56.852Z,19.60
2023-05-01T16:47:23.755Z,19.77
2023-05-01T16:49:52.362Z,19.73
2023-05-01T16:52:19.333Z,20.33
2023-05-01T16:54:46.106Z,20.87
2023-05-01T16:57:12.931Z,20.87
2023-05-01T16:59:39.747Z,22.33
2023-05-01T17:02:07.194Z,22.33
2023-05-01T17:04:34.413Z,23.40
2023-05-01T17:07:01.228Z,24.30
2023-05-01T17:09:28.087Z,25.67
2023-05-01T17:11:56.823Z,25.70
2023-05-01T17:14:23.925Z,25.53
2023-05-01T17:16:50.908Z,26.53
2023-05-01T17:19:17.816Z,26.17
2023-05-01T17:21:44.654Z,25.77
2023-05-01T17:24:13.106Z,27.80
2023-05-01T17:26:39.937Z,26.07
2023-05-01T17:29:06.730Z,26.43
2023-05-01T17:31:33.805Z,26.53
2023-05-01T17:34:00.871Z,26.83
2023-05-01T17:36:29.239Z,27.03
2023-05-01T17:38:56.332Z,27.43
2023-05-01T17:41:24.879Z,26.47
2023-05-01T17:43:51.788Z,26.63
2023-05-01T17:46:20.151Z,27.90
2023-05-01T17:48:48.538Z,27.13
2023-05-01T17:51:15.696Z,28.30
2023-05-01T17:53:42.621Z,27.00
2023-05-01T17:56:09.950Z,28.80
2023-05-01T17:58:37.004Z,27.73
2023-05-01T18:01:06.835Z,26.90
2023-05-01T18:03:34.025Z,27.10
2023-05-01T18:06:02.416Z,27.37
2023-05-01T18:08:29.403Z,27.87
2023-05-01T18:10:56.429Z,26.47
2023-05-01T18:13:28.225Z,28.53
2023-05-01T18:15:55.841Z,28.70
2023-05-01T18:18:23.179Z,29.37
2023-05-01T18:20:50.192Z,28.47
2023-05-01T18:23:18.807Z,27.83
2023-05-01T18:25:46.349Z,28.57
2023-05-01T18:28:16.315Z,30.07
2023-05-01T18:30:43.646Z,29.73
2023-05-01T18:33:11.099Z,30.23
2023-05-01T18:35:42.429Z,30.37
2023-05-01T18:38:10.385Z,30.50
2023-05-01T18:40:37.914Z,31.37
2023-05-01T18:43:05.117Z,28.77
2023-05-01T18:45:32.116Z,30.23
2023-05-01T18:48:03.290Z,30.87
2023-05-01T18:50:30.450Z,30.80
2023-05-01T18:52:57.251Z,32.03
2023-05-01T18:55:25.115Z,35.90
2023-05-01T18:57:52.194Z,33.43
2023-05-01T19:00:20.354Z,34.27
2023-05-01T19:02:52.911Z,34.60
2023-05-01T19:05:20.059Z,33.97
2023-05-01T19:07:47.132Z,34.43
2023-05-01T19:10:14.276Z,33.80
2023-05-01T19:12:42.063Z,35.63
2023-05-01T19:15:09.892Z,33.43
2023-05-01T19:17:37.290Z,33.87
2023-05-01T19:20:05.006Z,34.70
2023-05-01T19:22:32.007Z,34.60
2023-05-01T19:25:00.107Z,35.83
2023-05-01T19:27:27.441Z,35.00
2023-05-01T19:29:54.671Z,36.07
2023-05-01T19:32:22.971Z,34.63
2023-05-01T19:34:50.023Z,35.47
2023-05-01T19:37:16.878Z,36.23
2023-05-01T19:39:43.655Z,35.27
2023-05-01T19:42:10.570Z,36.60
2023-05-01T19:44:37.352Z,34.87
2023-05-01T19:47:04.127Z,35.23
2023-05-01T19:49:30.895Z,35.27
2023-05-01T19:51:57.754Z,36.97
2023-05-01T19:54:28.588Z,34.67
2023-05-01T19:56:55.959Z,34.93
2023-05-01T19:59:22.982Z,36.47
2023-05-01T20:01:50.029Z,36.90
2023-05-01T20:04:17.047Z,36.30
2023-05-01T20:06:44.059Z,37.07
2023-05-01T20:09:11.031Z,39.30
2023-05-01T20:11:37.836Z,38.47
2023-05-01T20:14:04.894Z,38.83
2023-05-01T20:16:31.924Z,40.33
2023-05-01T20:18:58.715Z,40.50
2023-05-01T20:21:25.780Z,41.10
2023-05-01T20:23:54.378Z,41.50
2023-05-01T20:26:21.423Z,41.37
2023-05-01T20:28:48.864Z,44.17
2023-05-01T20:31:16.080Z,42.87
2023-05-01T20:33:42.984Z,42.27
2023-05-01T20:36:09.829Z,41.67
2023-05-01T20:38:43.531Z,42.63
2023-05-01T20:41:10.471Z,42.13
2023-05-01T20:43:38.461Z,43.73
2023-05-01T20:46:05.578Z,43.27
2023-05-01T20:48:32.970Z,42.93
2023-05-01T20:50:59.754Z,43.07
2023-05-01T20:53:26.552Z,43.83
2023-05-01T20:55:53.449Z,42.60
2023-05-01T20:58:20.231Z,42.70
2023-05-01T21:00:47.226Z,42.53
2023-05-01T21:03:15.291Z,43.87
2023-05-01T21:05:42.398Z,42.97
2023-05-01T21:08:09.368Z,43.47
2023-05-01T21:10:36.973Z,43.20
2023-05-01T21:13:04.038Z,44.70
2023-05-01T21:15:32.096Z,41.60
2023-05-01T21:18:00.030Z,42.20
2023-05-01T21:20:32.350Z,42.90
2023-05-01T21:23:02.420Z,41.60
2023-05-01T21:25:31.836Z,44.73
2023-05-01T21:28:03.580Z,42.70
2023-05-01T21:30:34.874Z,42.33
2023-05-01T21:33:06.298Z,43.13
2023-05-01T21:35:33.551Z,43.13
2023-05-01T21:38:01.012Z,44.80
2023-05-01T21:40:27.975Z,43.70
2023-05-01T21:42:55.478Z,41.40
2023-05-01T21:45:22.749Z,44.43
2023-05-01T21:47:51.322Z,43.23
2023-05-01T21:50:19.679Z,44.27
2023-05-01T21:52:48.419Z,44.50
2023-05-01T21:55:17.476Z,46.20
2023-05-01T21:57:44.658Z,38.53
2023-05-01T22:00:12.368Z,40.70
2023-05-01T22:02:44.333Z,37.87
2023-05-01T22:05:13.573Z,35.67
2023-05-01T22:07:41.674Z,36.63
2023-05-01T22:10:10.285Z,37.80
2023-05-01T22:12:37.660Z,35.33
2023-05-01T22:15:05.007Z,34.27
2023-05-01T22:17:31.886Z,35.17
2023-05-01T22:19:59.050Z,34.77
2023-05-01T22:22:26.524Z,35.40
2023-05-01T22:24:53.495Z,33.23
2023-05-01T22:27:20.262Z,34.30
2023-05-01T22:29:47.133Z,33.70
2023-05-01T22:32:13.961Z,34.33
2023-05-01T22:34:40.785Z,35.57
2023-05-01T22:37:07.632Z,38.17
2023-05-01T22:39:36.193Z,36.07
2023-05-01T22:42:06.225Z,35.37
2023-05-01T22:44:33.311Z,34.23
2023-05-01T22:47:00.103Z,34.43
2023-05-01T22:49:28.529Z,36.23
2023-05-01T22:51:56.086Z,35.07
2023-05-01T22:54:23.182Z,36.03
2023-05-01T22:56:50.360Z,34.73
2023-05-01T22:59:17.528Z,34.90
2023-05-01T23:01:45.210Z,33.17
2023-05-01T23:04:12.829Z,35.17
2023-05-01T23:06:40.229Z,35.70
2023-05-01T23:09:07.229Z,34.30
2023-05-01T23:11:34.508Z,35.33
2023-05-01T23:14:01.631Z,36.30
2023-05-01T23:16:36.269Z,34.97
2023-05-01T23:19:03.762Z,35.10
2023-05-01T23:21:31.241Z,34.90
2023-05-01T23:23:58.011Z,36.63
2023-05-01T23:26:26.846Z,36.90
2023-05-01T23:28:53.834Z,35.07
2023-05-01T23:31:29.229Z,35.77
2023-05-01T23:33:56.174Z,35.97
2023-05-01T23:36:23.041Z,36.60
2023-05-01T23:38:49.877Z,38.10
2023-05-01T23:41:16.734Z,38.80
2023-05-01T23:43:46.653Z,40.27
2023-05-01T23:46:13.876Z,41.13
2023-05-01T23:48:41.094Z,42.03
2023-05-01T23:51:08.238Z,43.50
2023-05-01T23:53:35.229Z,43.57
2023-05-01T23:56:02.299Z,44.57
2023-05-01T23:58:29.105Z,43.37
